createdAt,value
2024-03-16T00:02:08.221Z,99799.66
2024-03-16T00:04:35.759Z,99801.44
2024-03-16T00:07:03.376Z,99810.25
2024-03-16T00:09:31.020Z,99807.59
2024-03-16T00:11:58.565Z,99792.66
2024-03-16T00:14:26.111Z,99795.41
2024-03-16T00:16:53.697Z,99797.19
2024-03-16T00:19:21.240Z,99791.88
2024-03-16T00:21:48.818Z,99795.50
2024-03-16T00:24:16.446Z,99793.69
2024-03-16T00:26:43.998Z,99783.16
2024-03-16T00:29:12.463Z,99786.69
2024-03-16T00:31:40.051Z,99785.81
2024-03-16T00:34:09.620Z,99784.03
2024-03-16T00:36:37.962Z,99780.59
2024-03-16T00:39:15.946Z,99798.25
2024-03-16T00:41:44.179Z,99785.09
2024-03-16T00:44:11.751Z,99772.13
2024-03-16T00:46:39.315Z,99771.16
2024-03-16T00:49:06.937Z,99775.41
2024-03-16T00:51:34.693Z,99780.81
2024-03-16T00:54:02.275Z,99779.09
2024-03-16T00:56:29.930Z,99775.59
2024-03-16T00:58:57.516Z,99772.94
2024-03-16T01:01:25.112Z,99780.06
2024-03-16T01:03:52.739Z,99772.13
2024-03-16T01:06:20.314Z,99780.16
2024-03-16T01:08:48.215Z,99775.69
2024-03-16T01:11:15.785Z,99775.69
2024-03-16T01:13:44.453Z,99778.34
2024-03-16T01:16:12.021Z,99769.66
2024-03-16T01:18:40.904Z,99777.59
2024-03-16T01:21:08.507Z,99780.34
2024-03-16T01:23:36.060Z,99781.19
2024-03-16T01:26:04.840Z,99776.94
2024-03-16T01:28:32.447Z,99777.03
2024-03-16T01:31:00.209Z,99769.75
2024-03-16T01:33:27.896Z,99770.94
2024-03-16T01:35:55.479Z,99773.41
2024-03-16T01:38:23.039Z,99778.81
2024-03-16T01:40:50.588Z,99777.88
2024-03-16T01:43:18.148Z,99776.16
2024-03-16T01:45:45.815Z,99777.09
2024-03-16T01:48:13.723Z,99776.25
2024-03-16T01:50:41.306Z,99768.41
2024-03-16T01:53:10.588Z,99768.31
2024-03-16T01:55:38.154Z,99765.75
2024-03-16T01:58:07.467Z,99769.31
2024-03-16T02:00:35.192Z,99770.28
2024-03-16T02:03:03.135Z,99766.75
2024-03-16T02:05:32.185Z,99771.19
2024-03-16T02:08:00.302Z,99784.44
2024-03-16T02:10:28.364Z,99780.97
2024-03-16T02:12:56.066Z,99774.81
2024-03-16T02:15:23.729Z,99785.50
2024-03-16T02:17:51.499Z,99776.59
2024-03-16T02:20:20.833Z,99780.19
2024-03-16T02:22:50.722Z,99782.06
2024-03-16T02:25:19.274Z,99787.38
2024-03-16T02:27:48.275Z,99785.66
2024-03-16T02:30:16.289Z,99774.22
2024-03-16T02:32:44.047Z,99782.16
2024-03-16T02:35:11.837Z,99769.88
2024-03-16T02:37:39.388Z,99770.75
2024-03-16T02:40:07.543Z,99776.03
2024-03-16T02:42:36.233Z,99777.91
2024-03-16T02:45:04.577Z,99771.75
2024-03-16T02:47:32.195Z,99775.25
2024-03-16T02:50:00.903Z,99780.56
2024-03-16T02:52:28.488Z,99773.56
2024-03-16T02:54:56.046Z,99774.50
2024-03-16T02:57:25.146Z,99769.38
2024-03-16T02:59:52.758Z,99778.00
2024-03-16T03:02:24.418Z,99773.66
2024-03-16T03:04:52.013Z,99769.47
2024-03-16T03:07:19.603Z,99789.66
2024-03-16T03:09:47.775Z,99786.13
2024-03-16T03:12:15.558Z,99789.66
2024-03-16T03:14:43.170Z,99787.09
2024-03-16T03:17:10.747Z,99790.66
2024-03-16T03:19:38.377Z,99808.28
2024-03-16T03:22:06.366Z,99793.22
2024-03-16T03:24:33.974Z,99791.53
2024-03-16T03:27:01.543Z,99800.44
2024-03-16T03:29:29.119Z,99793.59
2024-03-16T03:31:58.138Z,99811.94
2024-03-16T03:34:26.437Z,99803.16
2024-03-16T03:36:54.176Z,99811.09
2024-03-16T03:39:21.809Z,99797.97
2024-03-16T03:41:50.419Z,99797.19
2024-03-16T03:44:25.648Z,99808.47
2024-03-16T03:46:55.808Z,99805.91
2024-03-16T03:49:30.687Z,99812.13
2024-03-16T03:51:59.239Z,99809.47
2024-03-16T03:54:26.187Z,99818.28
2024-03-16T03:56:53.845Z,99812.22
2024-03-16T03:59:21.462Z,99809.56
2024-03-16T04:01:49.034Z,99815.72
2024-03-16T04:04:16.668Z,99823.66
2024-03-16T04:06:45.970Z,99814.03
2024-03-16T04:09:14.003Z,99825.53
2024-03-16T04:11:41.683Z,99820.34
2024-03-16T04:14:09.402Z,99814.13
2024-03-16T04:16:36.993Z,99799.03
2024-03-16T04:19:05.142Z,99809.00
2024-03-16T04:21:32.813Z,99814.31
2024-03-16T04:24:00.402Z,99818.56
2024-03-16T04:26:28.078Z,99822.16
2024-03-16T04:28:55.812Z,99822.25
2024-03-16T04:31:23.375Z,99813.81
2024-03-16T04:33:52.379Z,99823.16
2024-03-16T04:36:20.113Z,99824.03
2024-03-16T04:38:47.653Z,99821.38
2024-03-16T04:41:15.214Z,99829.41
2024-03-16T04:43:46.068Z,99819.00
2024-03-16T04:46:14.719Z,99805.69
2024-03-16T04:48:42.319Z,99806.63
2024-03-16T04:51:09.883Z,99817.22
2024-03-16T04:53:37.477Z,99828.72
2024-03-16T04:56:05.275Z,99834.81
2024-03-16T04:58:32.809Z,99834.03
2024-03-16T05:01:00.477Z,99831.38
2024-03-16T05:03:28.309Z,99834.03
2024-03-16T05:05:57.417Z,99841.13
2024-03-16T05:08:25.027Z,99834.97
2024-03-16T05:10:52.804Z,99830.63
2024-03-16T05:13:20.454Z,99839.41
2024-03-16T05:15:48.089Z,99822.00
2024-03-16T05:18:15.879Z,99838.66
2024-03-16T05:20:43.599Z,99842.16
2024-03-16T05:23:11.139Z,99841.31
2024-03-16T05:25:39.166Z,99842.16
2024-03-16T05:28:06.939Z,99841.31
2024-03-16T05:30:34.661Z,99849.25
2024-03-16T05:33:02.592Z,99850.19
2024-03-16T05:35:30.239Z,99852.00
2024-03-16T05:37:57.801Z,99850.28
2024-03-16T05:40:25.676Z,99856.59
2024-03-16T05:42:53.322Z,99860.03
2024-03-16T05:45:20.933Z,99860.84
2024-03-16T05:47:48.489Z,99862.59
2024-03-16T05:50:16.063Z,99864.47
2024-03-16T05:52:43.606Z,99868.06
2024-03-16T05:55:11.261Z,99872.41
2024-03-16T05:57:38.856Z,99872.41
2024-03-16T06:00:15.232Z,99872.41
2024-03-16T06:02:42.843Z,99874.19
2024-03-16T06:05:10.991Z,99884.88
2024-03-16T06:07:38.563Z,99886.69
2024-03-16T06:10:06.866Z,99890.16
2024-03-16T06:12:34.902Z,99891.28
2024-03-16T06:15:02.512Z,99901.69
2024-03-16T06:17:30.103Z,99898.09
2024-03-16T06:19:57.705Z,99900.84
2024-03-16T06:22:25.271Z,99904.44
2024-03-16T06:24:53.059Z,99909.72
2024-03-16T06:27:22.689Z,99906.13
2024-03-16T06:29:53.746Z,99916.81
2024-03-16T06:32:22.301Z,99907.16
2024-03-16T06:34:50.126Z,99910.78
2024-03-16T06:37:18.449Z,99909.03
2024-03-16T06:39:47.157Z,99905.66
2024-03-16T06:42:14.762Z,99921.28
2024-03-16T06:44:42.304Z,99907.78
2024-03-16T06:47:09.905Z,99923.06
2024-03-16T06:49:37.448Z,99929.28
2024-03-16T06:52:05.368Z,99929.28
2024-03-16T06:54:32.939Z,99931.00
2024-03-16T06:57:00.491Z,99924.84
2024-03-16T06:59:28.041Z,99928.69
2024-03-16T07:01:55.990Z,99947.84
2024-03-16T07:04:23.683Z,99937.25
2024-03-16T07:06:51.278Z,99946.88
2024-03-16T07:09:19.806Z,99950.38
2024-03-16T07:11:48.722Z,99953.88
2024-03-16T07:14:16.900Z,99959.16
2024-03-16T07:16:44.467Z,99960.13
2024-03-16T07:19:12.138Z,99965.41
2024-03-16T07:21:39.792Z,99974.22
2024-03-16T07:24:10.718Z,99982.16
2024-03-16T07:26:38.300Z,99983.94
2024-03-16T07:29:05.865Z,99983.06
2024-03-16T07:31:33.424Z,99987.72
2024-03-16T07:34:02.932Z,99992.84
2024-03-16T07:36:30.902Z,99997.53
2024-03-16T07:38:58.789Z,100014.94
2024-03-16T07:41:26.424Z,100031.69
2024-03-16T07:43:54.070Z,100037.84
2024-03-16T07:46:21.663Z,100065.06
2024-03-16T07:48:50.229Z,100072.34
2024-03-16T07:51:18.153Z,100080.13
2024-03-16T07:53:45.700Z,100078.38
2024-03-16T07:56:13.263Z,100096.09
2024-03-16T07:58:40.832Z,100098.72
2024-03-16T08:01:10.980Z,100097.94
2024-03-16T08:03:38.648Z,100111.03
2024-03-16T08:06:08.514Z,100115.44
2024-03-16T08:08:36.199Z,100123.47
2024-03-16T08:11:05.157Z,100136.72
2024-03-16T08:13:32.894Z,100143.72
2024-03-16T08:16:01.112Z,100134.94
2024-03-16T08:18:28.688Z,100149.94
2024-03-16T08:20:58.469Z,100161.31
2024-03-16T08:23:26.044Z,100165.75
2024-03-16T08:25:53.621Z,100158.66
2024-03-16T08:28:21.066Z,100168.56
2024-03-16T08:30:48.693Z,100178.97
2024-03-16T08:33:16.324Z,100185.16
2024-03-16T08:35:45.775Z,100187.88
2024-03-16T08:38:13.333Z,100193.16
2024-03-16T08:40:40.985Z,100196.69
2024-03-16T08:43:08.949Z,100204.63
2024-03-16T08:45:37.120Z,100209.91
2024-03-16T08:48:05.025Z,100216.91
2024-03-16T08:50:32.650Z,100226.63
2024-03-16T08:53:00.284Z,100224.06
2024-03-16T08:55:28.546Z,100232.81
2024-03-16T08:57:56.343Z,100239.03
2024-03-16T09:00:24.058Z,100231.50
2024-03-16T09:02:53.228Z,100247.81
2024-03-16T09:05:22.155Z,100239.03
2024-03-16T09:07:49.732Z,100248.75
2024-03-16T09:10:18.526Z,100255.84
2024-03-16T09:12:47.973Z,100272.66
2024-03-16T09:15:16.366Z,100273.53
2024-03-16T09:17:43.985Z,100278.84
2024-03-16T09:20:12.197Z,100295.56
2024-03-16T09:22:40.124Z,100297.38
2024-03-16T09:25:09.103Z,100301.78
2024-03-16T09:27:36.882Z,100312.38
2024-03-16T09:30:06.925Z,100317.69
2024-03-16T09:32:33.973Z,100320.41
2024-03-16T09:35:01.608Z,100319.69
2024-03-16T09:37:29.154Z,100333.72
2024-03-16T09:39:56.736Z,100345.94
2024-03-16T09:42:25.013Z,100339.16
